createdAt,value
2023-02-11T00:02:13.236Z,-2.00
2023-02-11T00:07:14.896Z,-2.02
2023-02-11T00:12:19.486Z,-2.07
2023-02-11T00:17:21.510Z,-2.09
2023-02-11T00:22:23.565Z,-2.14
2023-02-11T00:27:25.231Z,-2.16
2023-02-11T00:32:26.905Z,-2.15
2023-02-11T00:37:29.157Z,-2.15
2023-02-11T00:42:31.004Z,-2.10
2023-02-11T00:47:32.620Z,-2.13
2023-02-11T00:52:34.931Z,-2.22
2023-02-11T00:57:37.616Z,-2.27
2023-02-11T01:02:39.663Z,-2.38
2023-02-11T01:07:41.324Z,-2.37
2023-02-11T01:12:43.054Z,-2.35
2023-02-11T01:17:45.381Z,-2.30
2023-02-11T01:22:47.139Z,-2.32
2023-02-11T01:27:50.491Z,-2.38
2023-02-11T01:32:52.190Z,-2.38
2023-02-11T01:37:53.930Z,-2.38
2023-02-11T01:42:55.544Z,-2.38
2023-02-11T01:47:57.247Z,-2.42
2023-02-11T01:53:18.931Z,-2.56
2023-02-11T01:58:21.705Z,-2.59
2023-02-11T02:03:24.724Z,-2.54
2023-02-11T02:08:29.531Z,-2.52
2023-02-11T02:13:33.772Z,-2.55
2023-02-11T02:18:59.858Z,-2.59
2023-02-11T02:24:26.369Z,-2.58
2023-02-11T02:29:46.704Z,-2.54
2023-02-11T02:35:04.167Z,-2.77
2023-02-11T02:40:12.897Z,-2.82
2023-02-11T02:45:14.852Z,-2.74
2023-02-11T02:50:19.649Z,-2.61
2023-02-11T02:55:54.795Z,-2.53
2023-02-11T03:01:21.270Z,-2.51
2023-02-11T03:06:45.910Z,-2.52
2023-02-11T03:11:47.653Z,-2.48
2023-02-11T03:16:51.776Z,-2.35
2023-02-11T03:21:55.225Z,-2.27
2023-02-11T03:27:01.528Z,-2.23
2023-02-11T03:32:31.100Z,-2.35
2023-02-11T03:37:40.127Z,-2.34
2023-02-11T03:42:46.418Z,-2.22
2023-02-11T03:47:56.755Z,-2.19
2023-02-11T03:53:00.546Z,-2.20
2023-02-11T03:58:02.225Z,-2.31
2023-02-11T04:03:04.622Z,-2.28
2023-02-11T04:08:06.394Z,-2.20
2023-02-11T04:13:08.184Z,-2.23
2023-02-11T04:18:09.923Z,-2.16
2023-02-11T04:23:11.571Z,-2.08
2023-02-11T04:28:13.268Z,-2.10
2023-02-11T04:33:14.923Z,-1.93
2023-02-11T04:38:17.047Z,-1.79
2023-02-11T04:43:18.825Z,-1.68
2023-02-11T04:48:20.604Z,-1.42
2023-02-11T04:53:22.231Z,-1.38
2023-02-11T04:58:24.374Z,-1.35
2023-02-11T05:03:26.104Z,-1.19
2023-02-11T05:08:28.175Z,-0.95
2023-02-11T05:13:30.286Z,-0.82
2023-02-11T05:18:31.925Z,-0.71
2023-02-11T05:23:34.288Z,-0.58
2023-02-11T05:28:37.750Z,-0.45
2023-02-11T05:33:39.446Z,-0.36
2023-02-11T05:38:42.550Z,-0.25
2023-02-11T05:43:44.185Z,-0.17
2023-02-11T05:48:45.834Z,-0.14
2023-02-11T05:53:47.507Z,-0.14
2023-02-11T05:58:49.195Z,-0.05
2023-02-11T06:03:51.356Z,0.06
2023-02-11T06:08:53.124Z,0.09
2023-02-11T06:13:54.905Z,0.12
2023-02-11T06:18:56.555Z,0.21
2023-02-11T06:23:58.331Z,0.27
2023-02-11T06:29:01.301Z,0.35
2023-02-11T06:34:03.263Z,0.39
2023-02-11T06:39:05.143Z,0.37
2023-02-11T06:44:07.287Z,0.30
2023-02-11T06:49:09.076Z,0.25
2023-02-11T06:54:12.104Z,0.32
2023-02-11T06:59:18.563Z,0.43
2023-02-11T07:04:20.321Z,0.54
2023-02-11T07:09:21.972Z,0.49
2023-02-11T07:14:23.799Z,0.54
2023-02-11T07:19:25.487Z,0.52
2023-02-11T07:24:27.709Z,0.50
2023-02-11T07:29:29.399Z,0.56
2023-02-11T07:34:31.358Z,0.62
2023-02-11T07:39:33.127Z,0.61
2023-02-11T07:44:35.097Z,0.91
2023-02-11T07:49:36.795Z,1.29
2023-02-11T07:54:38.427Z,1.41
2023-02-11T07:59:40.131Z,1.38
2023-02-11T08:04:41.807Z,1.38
2023-02-11T08:09:43.551Z,1.48
2023-02-11T08:14:45.416Z,1.55
2023-02-11T08:19:47.130Z,1.65
2023-02-11T08:24:52.262Z,1.71
2023-02-11T08:29:54.870Z,1.76
2023-02-11T08:34:56.956Z,1.89
2023-02-11T08:39:58.675Z,1.97
2023-02-11T08:45:00.383Z,2.01
2023-02-11T08:50:02.042Z,2.02
2023-02-11T08:55:04.349Z,2.03
2023-02-11T09:00:06.822Z,2.02
2023-02-11T09:05:09.118Z,1.97
2023-02-11T09:10:11.798Z,2.00
2023-02-11T09:15:13.607Z,2.16
2023-02-11T09:20:15.370Z,2.25
2023-02-11T09:25:17.002Z,2.41
2023-02-11T09:30:18.759Z,2.53
2023-02-11T09:35:20.424Z,2.63
2023-02-11T09:40:23.229Z,2.87
2023-02-11T09:45:28.464Z,3.15
2023-02-11T09:50:34.297Z,3.30
2023-02-11T09:55:42.871Z,3.51
2023-02-11T10:00:48.938Z,3.84
2023-02-11T10:06:10.716Z,4.06
2023-02-11T10:11:31.529Z,4.14
2023-02-11T10:16:48.279Z,4.17
2023-02-11T10:22:23.103Z,4.27
2023-02-11T10:27:30.656Z,4.33
2023-02-11T10:32:39.224Z,4.36
2023-02-11T10:37:43.565Z,4.43
2023-02-11T10:42:51.235Z,4.58
2023-02-11T10:47:55.212Z,4.75
2023-02-11T10:53:12.317Z,4.80
2023-02-11T10:58:24.060Z,4.90
2023-02-11T11:03:33.976Z,4.97
2023-02-11T11:08:47.833Z,5.01
2023-02-11T11:13:52.766Z,4.96
2023-02-11T11:19:22.217Z,5.03
2023-02-11T11:24:37.461Z,5.17
2023-02-11T11:29:51.221Z,5.58
2023-02-11T11:34:55.788Z,5.64
2023-02-11T11:40:00.523Z,5.57
2023-02-11T11:45:24.750Z,5.71
2023-02-11T11:50:35.594Z,5.90
2023-02-11T11:55:59.852Z,6.00
2023-02-11T12:01:04.417Z,6.29
2023-02-11T12:06:24.439Z,6.22
2023-02-11T12:11:52.803Z,6.38
2023-02-11T12:17:22.397Z,6.52
2023-02-11T12:22:51.514Z,6.80
2023-02-11T12:28:16.797Z,6.88
2023-02-11T12:33:57.670Z,6.83
2023-02-11T12:39:06.501Z,6.95
2023-02-11T12:44:23.763Z,7.10
2023-02-11T12:49:38.630Z,7.05
2023-02-11T12:54:47.772Z,7.30
2023-02-11T12:59:59.191Z,7.29
2023-02-11T13:05:15.872Z,7.13
2023-02-11T13:10:34.603Z,7.11
2023-02-11T13:15:37.060Z,7.30
2023-02-11T13:20:50.886Z,7.57
2023-02-11T13:26:10.487Z,7.78
2023-02-11T13:31:13.563Z,7.55
2023-02-11T13:36:27.596Z,7.41
2023-02-11T13:41:41.818Z,7.11
2023-02-11T13:46:53.077Z,6.98
2023-02-11T13:51:55.755Z,6.83
2023-02-11T13:57:19.635Z,6.75
2023-02-11T14:02:55.151Z,6.80
2023-02-11T14:08:30.947Z,6.72
2023-02-11T14:13:34.565Z,6.72
2023-02-11T14:18:39.045Z,6.75
2023-02-11T14:23:41.659Z,6.78
2023-02-11T14:28:46.765Z,6.76
2023-02-11T14:34:12.449Z,6.70
2023-02-11T14:39:47.046Z,6.66
2023-02-11T14:44:52.223Z,6.67
2023-02-11T14:49:54.278Z,6.73
2023-02-11T14:55:14.820Z,6.73
2023-02-11T15:00:22.104Z,6.75
2023-02-11T15:05:31.382Z,6.77
2023-02-11T15:10:37.884Z,6.74
2023-02-11T15:15:40.681Z,6.73
2023-02-11T15:20:42.476Z,6.75
2023-02-11T15:25:51.079Z,6.80
2023-02-11T15:31:14.100Z,6.74
2023-02-11T15:36:16.334Z,6.69
2023-02-11T15:41:38.370Z,6.66
2023-02-11T15:46:40.896Z,6.60
2023-02-11T15:51:45.881Z,6.60
2023-02-11T15:56:52.762Z,6.59
2023-02-11T16:01:55.423Z,6.58
2023-02-11T16:06:57.478Z,6.51
2023-02-11T16:12:07.485Z,6.48
2023-02-11T16:17:12.625Z,6.46
2023-02-11T16:22:18.859Z,6.39
2023-02-11T16:27:25.701Z,6.36
2023-02-11T16:32:29.664Z,6.34
2023-02-11T16:37:32.261Z,6.33
2023-02-11T16:42:34.123Z,6.33
2023-02-11T16:47:40.819Z,6.34
2023-02-11T16:52:43.140Z,6.35
2023-02-11T16:57:44.848Z,6.35
2023-02-11T17:02:46.613Z,6.36
2023-02-11T17:07:49.145Z,6.34
2023-02-11T17:12:51.371Z,6.32
2023-02-11T17:17:53.122Z,6.31
2023-02-11T17:22:54.870Z,6.32
2023-02-11T17:27:56.722Z,6.33
2023-02-11T17:32:58.478Z,6.32
2023-02-11T17:38:01.367Z,6.30
2023-02-11T17:43:03.312Z,6.30
2023-02-11T17:48:05.096Z,6.26
2023-02-11T17:53:06.739Z,6.22
2023-02-11T17:58:08.739Z,6.24
2023-02-11T18:03:10.358Z,6.07
2023-02-11T18:08:12.113Z,6.04
2023-02-11T18:13:14.006Z,6.01
2023-02-11T18:18:16.308Z,5.97
2023-02-11T18:23:18.031Z,5.55
2023-02-11T18:28:19.842Z,5.30
2023-02-11T18:33:21.559Z,5.19
2023-02-11T18:38:24.191Z,5.07
2023-02-11T18:43:26.000Z,5.15
2023-02-11T18:48:28.221Z,5.15
2023-02-11T18:53:30.176Z,5.12
2023-02-11T18:58:32.188Z,5.01
2023-02-11T19:03:34.010Z,5.07
2023-02-11T19:08:35.868Z,5.26
2023-02-11T19:13:38.288Z,5.39
2023-02-11T19:18:40.182Z,5.46
2023-02-11T19:23:41.859Z,5.51
2023-02-11T19:28:44.677Z,5.41
2023-02-11T19:33:47.655Z,5.41
2023-02-11T19:38:49.765Z,5.24
2023-02-11T19:43:52.919Z,5.17
2023-02-11T19:48:54.884Z,5.18
2023-02-11T19:53:58.001Z,4.99
2023-02-11T19:59:03.505Z,4.88
2023-02-11T20:04:06.769Z,4.82
2023-02-11T20:09:14.100Z,4.86
2023-02-11T20:14:16.045Z,4.92
2023-02-11T20:19:21.247Z,4.94
2023-02-11T20:24:25.606Z,4.91
2023-02-11T20:29:29.570Z,4.90
2023-02-11T20:34:31.362Z,4.89
2023-02-11T20:39:33.328Z,4.88
2023-02-11T20:44:36.677Z,4.88
2023-02-11T20:49:38.390Z,4.93
2023-02-11T20:54:40.268Z,4.89
2023-02-11T20:59:42.657Z,4.74
2023-02-11T21:04:44.350Z,4.80
2023-02-11T21:09:46.080Z,4.87
2023-02-11T21:14:47.716Z,4.97
2023-02-11T21:19:49.561Z,4.96
2023-02-11T21:24:51.330Z,4.83
2023-02-11T21:29:54.798Z,4.83
2023-02-11T21:34:56.669Z,4.90
2023-02-11T21:39:58.384Z,5.00
2023-02-11T21:45:00.267Z,5.05
2023-02-11T21:50:01.858Z,5.00
2023-02-11T21:55:03.756Z,4.99
2023-02-11T22:00:07.686Z,4.90
2023-02-11T22:05:10.546Z,4.81
2023-02-11T22:10:12.868Z,4.82
2023-02-11T22:15:14.944Z,4.86
2023-02-11T22:20:17.494Z,4.86
2023-02-11T22:25:19.336Z,4.74
2023-02-11T22:30:21.046Z,4.71
2023-02-11T22:35:22.780Z,4.78
2023-02-11T22:40:24.989Z,4.79
2023-02-11T22:45:26.936Z,4.52
2023-02-11T22:50:28.697Z,4.49
2023-02-11T22:55:30.615Z,4.59
2023-02-11T23:00:37.962Z,4.63
2023-02-11T23:05:42.867Z,4.63
2023-02-11T23:10:44.610Z,4.64
2023-02-11T23:15:47.151Z,4.53
2023-02-11T23:20:48.900Z,4.48
2023-02-11T23:25:50.588Z,4.55
2023-02-11T23:30:52.403Z,4.64
2023-02-11T23:35:54.369Z,4.68
2023-02-11T23:40:56.208Z,4.70
2023-02-11T23:45:58.354Z,4.67
2023-02-11T23:51:00.116Z,4.55
2023-02-11T23:56:07.413Z,4.59
